sensor_id;sensor_type;location;lat;lon;timestamp;P1;durP1;ratioP1;P2;durP2;ratioP2
12921;SDS011;6528;48.086;16.282;2023-02-02T00:00:23;4.50;;;2.90;;
12921;SDS011;6528;48.086;16.282;2023-02-02T00:02:50;4.30;;;3.00;;
12921;SDS011;6528;48.086;16.282;2023-02-02T00:05:17;3.47;;;2.27;;
12921;SDS011;6528;48.086;16.282;2023-02-02T00:07:44;3.87;;;2.40;;
12921;SDS011;6528;48.086;16.282;2023-02-02T00:10:10;3.60;;;2.37;;
12921;SDS011;6528;48.086;16.282;2023-02-02T00:12:37;2.57;;;2.37;;
12921;SDS011;6528;48.086;16.282;2023-02-02T00:15:04;3.40;;;3.10;;
12921;SDS011;6528;48.086;16.282;2023-02-02T00:17:31;4.17;;;3.10;;
12921;SDS011;6528;48.086;16.282;2023-02-02T00:19:57;3.00;;;2.47;;
12921;SDS011;6528;48.086;16.282;2023-02-02T00:22:24;3.03;;;2.60;;
12921;SDS011;6528;48.086;16.282;2023-02-02T00:24:51;3.50;;;2.70;;
12921;SDS011;6528;48.086;16.282;2023-02-02T00:27:17;3.97;;;2.63;;
12921;SDS011;6528;48.086;16.282;2023-02-02T00:29:44;3.53;;;2.27;;
12921;SDS011;6528;48.086;16.282;2023-02-02T00:32:11;2.50;;;2.30;;
12921;SDS011;6528;48.086;16.282;2023-02-02T00:34:38;3.20;;;2.40;;
12921;SDS011;6528;48.086;16.282;2023-02-02T00:37:04;3.23;;;2.27;;
12921;SDS011;6528;48.086;16.282;2023-02-02T00:39:31;2.33;;;2.03;;
12921;SDS011;6528;48.086;16.282;2023-02-02T00:41:58;2.33;;;2.13;;
12921;SDS011;6528;48.086;16.282;2023-02-02T00:44:24;4.30;;;2.30;;
12921;SDS011;6528;48.086;16.282;2023-02-02T00:47:10;4.10;;;2.53;;
12921;SDS011;6528;48.086;16.282;2023-02-02T00:49:37;2.10;;;1.90;;
12921;SDS011;6528;48.086;16.282;2023-02-02T00:52:03;3.90;;;2.27;;
12921;SDS011;6528;48.086;16.282;2023-02-02T00:54:30;3.30;;;2.23;;
12921;SDS011;6528;48.086;16.282;2023-02-02T00:56:57;2.60;;;1.90;;
12921;SDS011;6528;48.086;16.282;2023-02-02T00:59:24;3.83;;;2.50;;
12921;SDS011;6528;48.086;16.282;2023-02-02T01:01:50;3.10;;;2.00;;
12921;SDS011;6528;48.086;16.282;2023-02-02T01:04:17;2.17;;;1.97;;
12921;SDS011;6528;48.086;16.282;2023-02-02T01:06:44;5.20;;;1.90;;
12921;SDS011;6528;48.086;16.282;2023-02-02T01:09:11;2.90;;;1.70;;
12921;SDS011;6528;48.086;16.282;2023-02-02T01:11:37;2.70;;;2.33;;
12921;SDS011;6528;48.086;16.282;2023-02-02T01:14:04;2.20;;;1.57;;
12921;SDS011;6528;48.086;16.282;2023-02-02T01:16:31;2.10;;;1.90;;
12921;SDS011;6528;48.086;16.282;2023-02-02T01:18:58;2.17;;;1.80;;
12921;SDS011;6528;48.086;16.282;2023-02-02T01:21:24;2.10;;;1.83;;
12921;SDS011;6528;48.086;16.282;2023-02-02T01:23:51;2.27;;;1.40;;
12921;SDS011;6528;48.086;16.282;2023-02-02T01:26:18;1.73;;;1.60;;
12921;SDS011;6528;48.086;16.282;2023-02-02T01:28:45;3.60;;;2.27;;
12921;SDS011;6528;48.086;16.282;2023-02-02T01:31:14;2.43;;;1.67;;
12921;SDS011;6528;48.086;16.282;2023-02-02T01:33:44;2.30;;;1.40;;
12921;SDS011;6528;48.086;16.282;2023-02-02T01:36:13;2.17;;;1.90;;
12921;SDS011;6528;48.086;16.282;2023-02-02T01:38:42;2.97;;;1.80;;
12921;SDS011;6528;48.086;16.282;2023-02-02T01:41:14;2.40;;;1.90;;
12921;SDS011;6528;48.086;16.282;2023-02-02T01:46:13;1.63;;;1.50;;
12921;SDS011;6528;48.086;16.282;2023-02-02T01:48:49;2.00;;;1.60;;
12921;SDS011;6528;48.086;16.282;2023-02-02T01:51:22;1.53;;;1.30;;
12921;SDS011;6528;48.086;16.282;2023-02-02T01:53:56;1.53;;;1.40;;
12921;SDS011;6528;48.086;16.282;2023-02-02T01:56:29;1.60;;;1.37;;
12921;SDS011;6528;48.086;16.282;2023-02-02T01:59:00;1.70;;;1.30;;
12921;SDS011;6528;48.086;16.282;2023-02-02T02:01:28;1.53;;;1.33;;
12921;SDS011;6528;48.086;16.282;2023-02-02T02:03:55;1.80;;;1.70;;
12921;SDS011;6528;48.086;16.282;2023-02-02T02:06:22;2.00;;;1.43;;
12921;SDS011;6528;48.086;16.282;2023-02-02T02:11:23;1.27;;;1.13;;
12921;SDS011;6528;48.086;16.282;2023-02-02T02:13:51;1.80;;;1.60;;
12921;SDS011;6528;48.086;16.282;2023-02-02T02:32:00;1.33;;;1.23;;
12921;SDS011;6528;48.086;16.282;2023-02-02T02:37:51;1.73;;;1.30;;
12921;SDS011;6528;48.086;16.282;2023-02-02T02:43:10;1.10;;;1.00;;
12921;SDS011;6528;48.086;16.282;2023-02-02T02:45:45;1.40;;;1.13;;
12921;SDS011;6528;48.086;16.282;2023-02-02T02:48:12;1.93;;;1.10;;
12921;SDS011;6528;48.086;16.282;2023-02-02T02:50:39;2.83;;;1.00;;
12921;SDS011;6528;48.086;16.282;2023-02-02T02:53:13;0.93;;;0.93;;
12921;SDS011;6528;48.086;16.282;2023-02-02T02:58:34;1.23;;;1.10;;
12921;SDS011;6528;48.086;16.282;2023-02-02T03:01:08;1.40;;;1.30;;
12921;SDS011;6528;48.086;16.282;2023-02-02T03:03:45;0.93;;;0.93;;
12921;SDS011;6528;48.086;16.282;2023-02-02T03:06:24;0.77;;;0.77;;
12921;SDS011;6528;48.086;16.282;2023-02-02T03:09:07;0.87;;;0.77;;
12921;SDS011;6528;48.086;16.282;2023-02-02T03:11:40;1.47;;;1.00;;
12921;SDS011;6528;48.086;16.282;2023-02-02T03:14:07;1.03;;;0.90;;
12921;SDS011;6528;48.086;16.282;2023-02-02T03:16:37;0.80;;;0.80;;
12921;SDS011;6528;48.086;16.282;2023-02-02T03:19:04;1.33;;;0.90;;
12921;SDS011;6528;48.086;16.282;2023-02-02T03:21:32;0.87;;;0.70;;
12921;SDS011;6528;48.086;16.282;2023-02-02T03:24:00;1.17;;;1.07;;
12921;SDS011;6528;48.086;16.282;2023-02-02T03:26:27;0.70;;;0.70;;
12921;SDS011;6528;48.086;16.282;2023-02-02T03:28:54;1.53;;;1.03;;
12921;SDS011;6528;48.086;16.282;2023-02-02T03:31:24;0.90;;;0.90;;
12921;SDS011;6528;48.086;16.282;2023-02-02T03:33:52;2.50;;;1.30;;
12921;SDS011;6528;48.086;16.282;2023-02-02T03:36:20;1.03;;;0.93;;
12921;SDS011;6528;48.086;16.282;2023-02-02T03:38:47;1.47;;;1.10;;
12921;SDS011;6528;48.086;16.282;2023-02-02T03:41:14;1.20;;;1.10;;
12921;SDS011;6528;48.086;16.282;2023-02-02T03:43:40;0.60;;;0.60;;
12921;SDS011;6528;48.086;16.282;2023-02-02T03:46:07;1.00;;;0.90;;
12921;SDS011;6528;48.086;16.282;2023-02-02T03:48:35;0.77;;;0.77;;
12921;SDS011;6528;48.086;16.282;2023-02-02T03:51:06;2.00;;;1.00;;
12921;SDS011;6528;48.086;16.282;2023-02-02T03:53:34;0.70;;;0.70;;
12921;SDS011;6528;48.086;16.282;2023-02-02T03:56:01;1.30;;;0.90;;
12921;SDS011;6528;48.086;16.282;2023-02-02T03:58:28;1.33;;;0.73;;
12921;SDS011;6528;48.086;16.282;2023-02-02T04:01:02;0.63;;;0.60;;
12921;SDS011;6528;48.086;16.282;2023-02-02T04:03:30;0.50;;;0.50;;
12921;SDS011;6528;48.086;16.282;2023-02-02T04:05:58;1.40;;;0.60;;
12921;SDS011;6528;48.086;16.282;2023-02-02T04:08:25;1.23;;;0.80;;
12921;SDS011;6528;48.086;16.282;2023-02-02T04:10:51;1.07;;;0.97;;
12921;SDS011;6528;48.086;16.282;2023-02-02T04:13:18;0.80;;;0.80;;
12921;SDS011;6528;48.086;16.282;2023-02-02T04:15:45;1.93;;;0.80;;
12921;SDS011;6528;48.086;16.282;2023-02-02T04:18:12;0.60;;;0.50;;
12921;SDS011;6528;48.086;16.282;2023-02-02T04:20:39;0.50;;;0.50;;
12921;SDS011;6528;48.086;16.282;2023-02-02T04:23:05;0.70;;;0.70;;
12921;SDS011;6528;48.086;16.282;2023-02-02T04:25:32;0.50;;;0.50;;
12921;SDS011;6528;48.086;16.282;2023-02-02T04:27:59;0.70;;;0.70;;
12921;SDS011;6528;48.086;16.282;2023-02-02T04:30:25;1.63;;;0.70;;
12921;SDS011;6528;48.086;16.282;2023-02-02T04:32:52;0.60;;;0.60;;
12921;SDS011;6528;48.086;16.282;2023-02-02T04:35:20;0.60;;;0.60;;
12921;SDS011;6528;48.086;16.282;2023-02-02T04:37:47;0.67;;;0.67;;
12921;SDS011;6528;48.086;16.282;2023-02-02T04:40:13;0.80;;;0.80;;
12921;SDS011;6528;48.086;16.282;2023-02-02T04:42:40;0.60;;;0.50;;
12921;SDS011;6528;48.086;16.282;2023-02-02T04:45:07;1.13;;;0.93;;
12921;SDS011;6528;48.086;16.282;2023-02-02T04:47:34;0.57;;;0.50;;
12921;SDS011;6528;48.086;16.282;2023-02-02T04:50:01;0.60;;;0.50;;
12921;SDS011;6528;48.086;16.282;2023-02-02T04:52:28;0.70;;;0.70;;
12921;SDS011;6528;48.086;16.282;2023-02-02T04:54:55;0.53;;;0.53;;
12921;SDS011;6528;48.086;16.282;2023-02-02T04:57:21;0.70;;;0.70;;
12921;SDS011;6528;48.086;16.282;2023-02-02T04:59:48;1.43;;;1.03;;
12921;SDS011;6528;48.086;16.282;2023-02-02T05:02:15;0.97;;;0.80;;
12921;SDS011;6528;48.086;16.282;2023-02-02T05:04:42;0.93;;;0.87;;
12921;SDS011;6528;48.086;16.282;2023-02-02T05:07:08;0.80;;;0.70;;
12921;SDS011;6528;48.086;16.282;2023-02-02T05:09:35;0.63;;;0.63;;
12921;SDS011;6528;48.086;16.282;2023-02-02T05:12:02;0.73;;;0.50;;
12921;SDS011;6528;48.086;16.282;2023-02-02T05:14:29;0.60;;;0.60;;
12921;SDS011;6528;48.086;16.282;2023-02-02T05:16:55;0.73;;;0.63;;
12921;SDS011;6528;48.086;16.282;2023-02-02T05:19:22;0.63;;;0.63;;
12921;SDS011;6528;48.086;16.282;2023-02-02T05:21:49;0.67;;;0.67;;
12921;SDS011;6528;48.086;16.282;2023-02-02T05:24:16;0.70;;;0.63;;
12921;SDS011;6528;48.086;16.282;2023-02-02T05:26:43;0.77;;;0.77;;
12921;SDS011;6528;48.086;16.282;2023-02-02T05:29:10;0.80;;;0.80;;
12921;SDS011;6528;48.086;16.282;2023-02-02T05:31:37;0.70;;;0.70;;
12921;SDS011;6528;48.086;16.282;2023-02-02T05:34:03;0.47;;;0.47;;
12921;SDS011;6528;48.086;16.282;2023-02-02T05:36:32;0.90;;;0.63;;
12921;SDS011;6528;48.086;16.282;2023-02-02T05:38:58;0.90;;;0.57;;
12921;SDS011;6528;48.086;16.282;2023-02-02T05:41:25;1.17;;;1.07;;
12921;SDS011;6528;48.086;16.282;2023-02-02T05:43:52;0.80;;;0.63;;
12921;SDS011;6528;48.086;16.282;2023-02-02T05:46:19;1.30;;;0.70;;
12921;SDS011;6528;48.086;16.282;2023-02-02T05:48:45;0.77;;;0.77;;
12921;SDS011;6528;48.086;16.282;2023-02-02T05:51:16;0.70;;;0.70;;
12921;SDS011;6528;48.086;16.282;2023-02-02T05:53:49;0.70;;;0.70;;
12921;SDS011;6528;48.086;16.282;2023-02-02T05:56:16;0.67;;;0.67;;
12921;SDS011;6528;48.086;16.282;2023-02-02T05:58:43;0.97;;;0.70;;
12921;SDS011;6528;48.086;16.282;2023-02-02T06:01:12;0.70;;;0.53;;
12921;SDS011;6528;48.086;16.282;2023-02-02T06:03:39;0.70;;;0.70;;
12921;SDS011;6528;48.086;16.282;2023-02-02T06:06:06;0.53;;;0.53;;
12921;SDS011;6528;48.086;16.282;2023-02-02T06:08:33;1.00;;;1.00;;
12921;SDS011;6528;48.086;16.282;2023-02-02T06:11:07;1.17;;;0.73;;
12921;SDS011;6528;48.086;16.282;2023-02-02T06:13:35;1.27;;;0.50;;
12921;SDS011;6528;48.086;16.282;2023-02-02T06:16:02;0.83;;;0.60;;
12921;SDS011;6528;48.086;16.282;2023-02-02T06:18:29;0.67;;;0.67;;
12921;SDS011;6528;48.086;16.282;2023-02-02T06:20:56;0.73;;;0.60;;
12921;SDS011;6528;48.086;16.282;2023-02-02T06:23:24;0.73;;;0.57;;
12921;SDS011;6528;48.086;16.282;2023-02-02T06:25:51;0.97;;;0.80;;
12921;SDS011;6528;48.086;16.282;2023-02-02T06:28:17;0.80;;;0.80;;
12921;SDS011;6528;48.086;16.282;2023-02-02T06:30:44;0.40;;;0.40;;
12921;SDS011;6528;48.086;16.282;2023-02-02T06:33:12;0.67;;;0.67;;
12921;SDS011;6528;48.086;16.282;2023-02-02T06:35:38;0.73;;;0.70;;
12921;SDS011;6528;48.086;16.282;2023-02-02T06:38:05;0.73;;;0.73;;
12921;SDS011;6528;48.086;16.282;2023-02-02T06:40:32;0.50;;;0.50;;
12921;SDS011;6528;48.086;16.282;2023-02-02T06:42:59;0.90;;;0.90;;
12921;SDS011;6528;48.086;16.282;2023-02-02T06:45:28;0.67;;;0.60;;
12921;SDS011;6528;48.086;16.282;2023-02-02T06:47:59;0.80;;;0.80;;
12921;SDS011;6528;48.086;16.282;2023-02-02T06:50:29;0.97;;;0.90;;
12921;SDS011;6528;48.086;16.282;2023-02-02T06:52:55;0.80;;;0.80;;
12921;SDS011;6528;48.086;16.282;2023-02-02T06:55:22;0.83;;;0.80;;
12921;SDS011;6528;48.086;16.282;2023-02-02T06:57:54;0.80;;;0.80;;
12921;SDS011;6528;48.086;16.282;2023-02-02T07:00:22;0.93;;;0.70;;
12921;SDS011;6528;48.086;16.282;2023-02-02T07:02:49;1.13;;;0.80;;
12921;SDS011;6528;48.086;16.282;2023-02-02T07:05:16;0.90;;;0.70;;
12921;SDS011;6528;48.086;16.282;2023-02-02T07:07:44;1.10;;;1.00;;
12921;SDS011;6528;48.086;16.282;2023-02-02T07:10:11;0.70;;;0.70;;
12921;SDS011;6528;48.086;16.282;2023-02-02T07:12:59;0.97;;;0.97;;
12921;SDS011;6528;48.086;16.282;2023-02-02T07:15:26;0.80;;;0.80;;
12921;SDS011;6528;48.086;16.282;2023-02-02T07:17:53;0.90;;;0.80;;
12921;SDS011;6528;48.086;16.282;2023-02-02T07:20:20;0.87;;;0.80;;
12921;SDS011;6528;48.086;16.282;2023-02-02T07:22:47;1.20;;;1.10;;
12921;SDS011;6528;48.086;16.282;2023-02-02T07:25:14;0.90;;;0.90;;
12921;SDS011;6528;48.086;16.282;2023-02-02T07:27:41;1.17;;;0.80;;
12921;SDS011;6528;48.086;16.282;2023-02-02T07:30:08;0.60;;;0.60;;
12921;SDS011;6528;48.086;16.282;2023-02-02T07:32:35;0.80;;;0.80;;
12921;SDS011;6528;48.086;16.282;2023-02-02T07:35:02;0.80;;;0.80;;
12921;SDS011;6528;48.086;16.282;2023-02-02T07:37:29;1.57;;;0.77;;
12921;SDS011;6528;48.086;16.282;2023-02-02T07:39:55;0.83;;;0.83;;
12921;SDS011;6528;48.086;16.282;2023-02-02T07:42:22;1.00;;;0.90;;
12921;SDS011;6528;48.086;16.282;2023-02-02T07:44:49;7.10;;;4.50;;
12921;SDS011;6528;48.086;16.282;2023-02-02T07:47:15;55.83;;;34.37;;
12921;SDS011;6528;48.086;16.282;2023-02-02T07:49:42;95.70;;;52.60;;
12921;SDS011;6528;48.086;16.282;2023-02-02T07:52:10;122.27;;;63.07;;
12921;SDS011;6528;48.086;16.282;2023-02-02T07:54:37;128.50;;;64.67;;
12921;SDS011;6528;48.086;16.282;2023-02-02T07:57:04;150.97;;;74.37;;
12921;SDS011;6528;48.086;16.282;2023-02-02T07:59:31;167.53;;;78.97;;
12921;SDS011;6528;48.086;16.282;2023-02-02T08:01:57;177.60;;;83.37;;
12921;SDS011;6528;48.086;16.282;2023-02-02T08:04:24;198.70;;;90.13;;
12921;SDS011;6528;48.086;16.282;2023-02-02T08:06:51;187.20;;;86.70;;
12921;SDS011;6528;48.086;16.282;2023-02-02T08:09:18;190.03;;;89.37;;
12921;SDS011;6528;48.086;16.282;2023-02-02T08:11:44;202.37;;;91.47;;
12921;SDS011;6528;48.086;16.282;2023-02-02T08:14:11;194.43;;;89.13;;
12921;SDS011;6528;48.086;16.282;2023-02-02T08:16:39;217.93;;;96.87;;
12921;SDS011;6528;48.086;16.282;2023-02-02T08:19:06;216.60;;;97.13;;
12921;SDS011;6528;48.086;16.282;2023-02-02T08:21:33;222.00;;;98.70;;
12921;SDS011;6528;48.086;16.282;2023-02-02T08:23:59;246.57;;;101.40;;
12921;SDS011;6528;48.086;16.282;2023-02-02T08:26:28;254.37;;;105.30;;
12921;SDS011;6528;48.086;16.282;2023-02-02T08:29:00;255.97;;;106.27;;
12921;SDS011;6528;48.086;16.282;2023-02-02T08:31:34;255.90;;;106.90;;
12921;SDS011;6528;48.086;16.282;2023-02-02T08:34:02;257.17;;;105.73;;
12921;SDS011;6528;48.086;16.282;2023-02-02T08:36:29;228.97;;;96.63;;
12921;SDS011;6528;48.086;16.282;2023-02-02T08:39:00;176.87;;;84.77;;
12921;SDS011;6528;48.086;16.282;2023-02-02T08:41:28;172.37;;;84.57;;
12921;SDS011;6528;48.086;16.282;2023-02-02T08:43:55;159.27;;;78.10;;
12921;SDS011;6528;48.086;16.282;2023-02-02T08:46:22;155.77;;;75.77;;
12921;SDS011;6528;48.086;16.282;2023-02-02T08:48:49;155.13;;;76.30;;
12921;SDS011;6528;48.086;16.282;2023-02-02T08:51:17;158.60;;;74.87;;
12921;SDS011;6528;48.086;16.282;2023-02-02T08:53:45;151.83;;;72.73;;
12921;SDS011;6528;48.086;16.282;2023-02-02T08:58:44;143.03;;;69.87;;
12921;SDS011;6528;48.086;16.282;2023-02-02T09:01:16;145.13;;;70.50;;
12921;SDS011;6528;48.086;16.282;2023-02-02T09:03:45;130.03;;;70.30;;
12921;SDS011;6528;48.086;16.282;2023-02-02T09:06:13;123.00;;;66.20;;
12921;SDS011;6528;48.086;16.282;2023-02-02T09:08:42;123.47;;;61.40;;
12921;SDS011;6528;48.086;16.282;2023-02-02T09:11:11;124.47;;;63.90;;
12921;SDS011;6528;48.086;16.282;2023-02-02T09:13:40;119.63;;;63.10;;
12921;SDS011;6528;48.086;16.282;2023-02-02T09:16:08;108.83;;;59.10;;
12921;SDS011;6528;48.086;16.282;2023-02-02T09:18:36;110.33;;;55.40;;
12921;SDS011;6528;48.086;16.282;2023-02-02T09:21:04;93.50;;;52.90;;
12921;SDS011;6528;48.086;16.282;2023-02-02T09:23:33;96.70;;;49.70;;
12921;SDS011;6528;48.086;16.282;2023-02-02T09:26:07;98.60;;;50.67;;
12921;SDS011;6528;48.086;16.282;2023-02-02T09:28:34;89.83;;;48.17;;
12921;SDS011;6528;48.086;16.282;2023-02-02T09:31:04;88.90;;;47.00;;
12921;SDS011;6528;48.086;16.282;2023-02-02T09:33:31;81.57;;;45.40;;
12921;SDS011;6528;48.086;16.282;2023-02-02T09:36:02;77.73;;;42.70;;
12921;SDS011;6528;48.086;16.282;2023-02-02T09:38:30;78.67;;;42.73;;
12921;SDS011;6528;48.086;16.282;2023-02-02T09:40:58;71.27;;;40.37;;
12921;SDS011;6528;48.086;16.282;2023-02-02T09:49:23;53.43;;;33.10;;
12921;SDS011;6528;48.086;16.282;2023-02-02T09:52:13;62.73;;;31.23;;
12921;SDS011;6528;48.086;16.282;2023-02-02T09:55:05;53.30;;;30.97;;
12921;SDS011;6528;48.086;16.282;2023-02-02T09:57:40;50.07;;;28.93;;
12921;SDS011;6528;48.086;16.282;2023-02-02T10:00:28;53.30;;;29.57;;
12921;SDS011;6528;48.086;16.282;2023-02-02T10:08:32;47.23;;;25.60;;
12921;SDS011;6528;48.086;16.282;2023-02-02T10:11:18;23.10;;;13.43;;
12921;SDS011;6528;48.086;16.282;2023-02-02T10:13:50;18.57;;;9.73;;
12921;SDS011;6528;48.086;16.282;2023-02-02T10:16:19;14.47;;;6.10;;
12921;SDS011;6528;48.086;16.282;2023-02-02T10:18:53;16.13;;;9.60;;
12921;SDS011;6528;48.086;16.282;2023-02-02T10:24:08;33.70;;;26.33;;
12921;SDS011;6528;48.086;16.282;2023-02-02T10:26:42;40.97;;;33.77;;
12921;SDS011;6528;48.086;16.282;2023-02-02T10:34:41;49.70;;;40.80;;
12921;SDS011;6528;48.086;16.282;2023-02-02T10:45:37;20.03;;;16.93;;
12921;SDS011;6528;48.086;16.282;2023-02-02T10:48:19;25.40;;;16.50;;
12921;SDS011;6528;48.086;16.282;2023-02-02T10:50:51;16.47;;;12.40;;
12921;SDS011;6528;48.086;16.282;2023-02-02T10:53:21;14.60;;;9.20;;
12921;SDS011;6528;48.086;16.282;2023-02-02T10:56:03;8.13;;;6.40;;
12921;SDS011;6528;48.086;16.282;2023-02-02T10:58:38;7.80;;;5.57;;
12921;SDS011;6528;48.086;16.282;2023-02-02T11:01:15;7.53;;;5.23;;
12921;SDS011;6528;48.086;16.282;2023-02-02T11:03:43;8.77;;;5.00;;
12921;SDS011;6528;48.086;16.282;2023-02-02T11:06:10;5.70;;;4.63;;
12921;SDS011;6528;48.086;16.282;2023-02-02T11:08:57;9.33;;;3.87;;
12921;SDS011;6528;48.086;16.282;2023-02-02T11:11:33;3.97;;;2.80;;
12921;SDS011;6528;48.086;16.282;2023-02-02T11:16:41;3.60;;;2.33;;
12921;SDS011;6528;48.086;16.282;2023-02-02T11:21:46;6.27;;;4.10;;
12921;SDS011;6528;48.086;16.282;2023-02-02T11:26:58;6.97;;;5.33;;
12921;SDS011;6528;48.086;16.282;2023-02-02T11:29:30;6.47;;;4.60;;
12921;SDS011;6528;48.086;16.282;2023-02-02T11:32:18;8.50;;;5.43;;
12921;SDS011;6528;48.086;16.282;2023-02-02T11:34:45;9.60;;;5.77;;
12921;SDS011;6528;48.086;16.282;2023-02-02T11:37:13;15.70;;;6.33;;
12921;SDS011;6528;48.086;16.282;2023-02-02T11:39:45;10.70;;;5.77;;
12921;SDS011;6528;48.086;16.282;2023-02-02T11:42:13;12.50;;;6.87;;
12921;SDS011;6528;48.086;16.282;2023-02-02T11:44:46;9.40;;;4.97;;
12921;SDS011;6528;48.086;16.282;2023-02-02T11:47:37;8.03;;;5.67;;
12921;SDS011;6528;48.086;16.282;2023-02-02T11:50:04;8.20;;;5.70;;
12921;SDS011;6528;48.086;16.282;2023-02-02T11:52:32;7.40;;;5.30;;
12921;SDS011;6528;48.086;16.282;2023-02-02T11:55:08;10.03;;;5.80;;
12921;SDS011;6528;48.086;16.282;2023-02-02T11:57:40;7.57;;;6.00;;
12921;SDS011;6528;48.086;16.282;2023-02-02T12:01:00;6.87;;;5.47;;
12921;SDS011;6528;48.086;16.282;2023-02-02T12:06:00;8.00;;;5.27;;
12921;SDS011;6528;48.086;16.282;2023-02-02T12:08:46;10.43;;;5.93;;
12921;SDS011;6528;48.086;16.282;2023-02-02T12:11:22;10.27;;;4.73;;
12921;SDS011;6528;48.086;16.282;2023-02-02T12:22:34;6.33;;;4.67;;
12921;SDS011;6528;48.086;16.282;2023-02-02T12:48:01;4.43;;;3.90;;
12921;SDS011;6528;48.086;16.282;2023-02-02T12:56:57;4.33;;;3.80;;
12921;SDS011;6528;48.086;16.282;2023-02-02T13:08:01;5.73;;;3.97;;
12921;SDS011;6528;48.086;16.282;2023-02-02T13:10:38;5.90;;;3.10;;
12921;SDS011;6528;48.086;16.282;2023-02-02T13:13:13;4.70;;;2.83;;
12921;SDS011;6528;48.086;16.282;2023-02-02T13:15:48;6.70;;;3.20;;
12921;SDS011;6528;48.086;16.282;2023-02-02T13:18:34;7.13;;;3.37;;
12921;SDS011;6528;48.086;16.282;2023-02-02T13:21:13;4.70;;;3.93;;
12921;SDS011;6528;48.086;16.282;2023-02-02T13:23:45;6.83;;;5.00;;
12921;SDS011;6528;48.086;16.282;2023-02-02T13:28:52;6.60;;;6.00;;
12921;SDS011;6528;48.086;16.282;2023-02-02T13:31:29;7.00;;;5.83;;
12921;SDS011;6528;48.086;16.282;2023-02-02T13:36:59;7.10;;;5.40;;
12921;SDS011;6528;48.086;16.282;2023-02-02T13:39:58;6.20;;;5.60;;
12921;SDS011;6528;48.086;16.282;2023-02-02T13:42:34;8.80;;;6.13;;
12921;SDS011;6528;48.086;16.282;2023-02-02T13:45:28;9.60;;;5.43;;
12921;SDS011;6528;48.086;16.282;2023-02-02T13:48:07;7.30;;;5.77;;
12921;SDS011;6528;48.086;16.282;2023-02-02T13:59:14;6.00;;;5.03;;
12921;SDS011;6528;48.086;16.282;2023-02-02T14:02:01;6.13;;;5.63;;
12921;SDS011;6528;48.086;16.282;2023-02-02T14:04:29;5.67;;;5.17;;
12921;SDS011;6528;48.086;16.282;2023-02-02T14:07:03;5.67;;;5.10;;
12921;SDS011;6528;48.086;16.282;2023-02-02T14:09:32;6.70;;;6.00;;
12921;SDS011;6528;48.086;16.282;2023-02-02T14:12:05;6.93;;;6.30;;
12921;SDS011;6528;48.086;16.282;2023-02-02T14:14:36;7.37;;;6.60;;
12921;SDS011;6528;48.086;16.282;2023-02-02T14:17:05;6.37;;;5.77;;
12921;SDS011;6528;48.086;16.282;2023-02-02T14:24:42;6.30;;;5.70;;
12921;SDS011;6528;48.086;16.282;2023-02-02T14:34:54;5.90;;;5.40;;
12921;SDS011;6528;48.086;16.282;2023-02-02T14:40:52;6.80;;;5.20;;
12921;SDS011;6528;48.086;16.282;2023-02-02T14:43:41;5.70;;;5.20;;
12921;SDS011;6528;48.086;16.282;2023-02-02T14:46:19;5.57;;;4.83;;
12921;SDS011;6528;48.086;16.282;2023-02-02T14:51:27;6.33;;;5.50;;
12921;SDS011;6528;48.086;16.282;2023-02-02T14:54:02;5.33;;;4.80;;
12921;SDS011;6528;48.086;16.282;2023-02-02T14:59:17;4.97;;;4.50;;
12921;SDS011;6528;48.086;16.282;2023-02-02T15:01:55;5.57;;;5.03;;
12921;SDS011;6528;48.086;16.282;2023-02-02T15:04:27;7.40;;;5.10;;
12921;SDS011;6528;48.086;16.282;2023-02-02T15:06:55;5.60;;;5.17;;
12921;SDS011;6528;48.086;16.282;2023-02-02T15:09:48;4.67;;;4.23;;
12921;SDS011;6528;48.086;16.282;2023-02-02T15:12:23;6.33;;;4.50;;
12921;SDS011;6528;48.086;16.282;2023-02-02T15:15:03;4.60;;;4.20;;
12921;SDS011;6528;48.086;16.282;2023-02-02T15:28:34;5.00;;;4.50;;
12921;SDS011;6528;48.086;16.282;2023-02-02T15:34:15;4.37;;;3.83;;
12921;SDS011;6528;48.086;16.282;2023-02-02T15:36:48;3.83;;;3.53;;
12921;SDS011;6528;48.086;16.282;2023-02-02T15:41:45;4.33;;;3.93;;
12921;SDS011;6528;48.086;16.282;2023-02-02T15:44:18;6.90;;;4.13;;
12921;SDS011;6528;48.086;16.282;2023-02-02T15:46:47;5.07;;;4.23;;
12921;SDS011;6528;48.086;16.282;2023-02-02T15:51:59;3.93;;;3.53;;
12921;SDS011;6528;48.086;16.282;2023-02-02T15:54:51;4.00;;;3.70;;
12921;SDS011;6528;48.086;16.282;2023-02-02T15:57:32;3.77;;;3.43;;
12921;SDS011;6528;48.086;16.282;2023-02-02T16:02:50;4.10;;;3.80;;
12921;SDS011;6528;48.086;16.282;2023-02-02T16:05:37;3.90;;;3.00;;
12921;SDS011;6528;48.086;16.282;2023-02-02T16:08:11;3.47;;;3.17;;
12921;SDS011;6528;48.086;16.282;2023-02-02T16:10:42;4.00;;;3.60;;
12921;SDS011;6528;48.086;16.282;2023-02-02T16:13:29;4.00;;;3.70;;
12921;SDS011;6528;48.086;16.282;2023-02-02T16:16:02;3.70;;;3.40;;
12921;SDS011;6528;48.086;16.282;2023-02-02T16:18:32;4.03;;;3.73;;
12921;SDS011;6528;48.086;16.282;2023-02-02T16:21:01;3.97;;;3.67;;
12921;SDS011;6528;48.086;16.282;2023-02-02T16:23:35;3.47;;;3.17;;
12921;SDS011;6528;48.086;16.282;2023-02-02T16:26:04;3.00;;;2.80;;
12921;SDS011;6528;48.086;16.282;2023-02-02T16:28:32;3.57;;;3.27;;
12921;SDS011;6528;48.086;16.282;2023-02-02T16:31:00;2.93;;;2.70;;
12921;SDS011;6528;48.086;16.282;2023-02-02T16:38:51;2.93;;;2.70;;
12921;SDS011;6528;48.086;16.282;2023-02-02T16:43:52;3.30;;;3.10;;
12921;SDS011;6528;48.086;16.282;2023-02-02T16:46:40;3.63;;;3.33;;
12921;SDS011;6528;48.086;16.282;2023-02-02T16:49:27;3.60;;;3.30;;
12921;SDS011;6528;48.086;16.282;2023-02-02T16:52:14;3.40;;;3.20;;
12921;SDS011;6528;48.086;16.282;2023-02-02T16:55:04;2.90;;;2.70;;
12921;SDS011;6528;48.086;16.282;2023-02-02T16:57:34;3.27;;;2.97;;
12921;SDS011;6528;48.086;16.282;2023-02-02T17:00:04;2.60;;;2.27;;
12921;SDS011;6528;48.086;16.282;2023-02-02T17:02:33;2.60;;;2.40;;
12921;SDS011;6528;48.086;16.282;2023-02-02T17:05:14;3.30;;;3.07;;
12921;SDS011;6528;48.086;16.282;2023-02-02T17:07:53;3.00;;;2.80;;
12921;SDS011;6528;48.086;16.282;2023-02-02T17:10:36;2.90;;;2.70;;
12921;SDS011;6528;48.086;16.282;2023-02-02T17:15:56;3.27;;;2.97;;
12921;SDS011;6528;48.086;16.282;2023-02-02T17:18:25;2.77;;;2.57;;
12921;SDS011;6528;48.086;16.282;2023-02-02T17:20:52;3.70;;;2.93;;
12921;SDS011;6528;48.086;16.282;2023-02-02T17:23:23;3.50;;;3.20;;
12921;SDS011;6528;48.086;16.282;2023-02-02T17:25:52;3.00;;;2.80;;
12921;SDS011;6528;48.086;16.282;2023-02-02T17:28:20;2.90;;;2.70;;
12921;SDS011;6528;48.086;16.282;2023-02-02T17:30:57;3.00;;;2.77;;
12921;SDS011;6528;48.086;16.282;2023-02-02T17:33:26;2.70;;;2.50;;
12921;SDS011;6528;48.086;16.282;2023-02-02T17:35:53;2.90;;;2.60;;
12921;SDS011;6528;48.086;16.282;2023-02-02T17:38:22;2.80;;;2.60;;
12921;SDS011;6528;48.086;16.282;2023-02-02T17:40:49;3.33;;;3.00;;
12921;SDS011;6528;48.086;16.282;2023-02-02T17:43:16;3.10;;;2.80;;
12921;SDS011;6528;48.086;16.282;2023-02-02T17:45:43;3.70;;;2.47;;
12921;SDS011;6528;48.086;16.282;2023-02-02T17:48:11;2.77;;;2.57;;
12921;SDS011;6528;48.086;16.282;2023-02-02T17:50:38;3.00;;;2.80;;
12921;SDS011;6528;48.086;16.282;2023-02-02T17:53:10;3.07;;;2.77;;
12921;SDS011;6528;48.086;16.282;2023-02-02T17:55:39;2.97;;;2.77;;
12921;SDS011;6528;48.086;16.282;2023-02-02T17:58:08;2.50;;;2.30;;
12921;SDS011;6528;48.086;16.282;2023-02-02T18:00:36;2.60;;;2.40;;
12921;SDS011;6528;48.086;16.282;2023-02-02T18:03:23;2.80;;;2.57;;
12921;SDS011;6528;48.086;16.282;2023-02-02T18:05:53;3.70;;;2.60;;